createdAt,value
2023-05-14T00:01:16.689Z,98929.98
2023-05-14T00:06:38.803Z,98928.83
2023-05-14T00:12:01.170Z,98923.93
2023-05-14T00:17:23.360Z,98916.80
2023-05-14T00:22:45.511Z,98915.39
2023-05-14T00:28:07.498Z,98913.85
2023-05-14T00:33:30.746Z,98912.83
2023-05-14T00:38:52.321Z,98906.07
2023-05-14T00:44:14.197Z,98903.89
2023-05-14T00:49:36.449Z,98907.88
2023-05-14T00:54:59.083Z,98906.45
2023-05-14T01:00:21.415Z,98909.24
2023-05-14T01:05:49.908Z,98914.00
2023-05-14T01:11:19.794Z,98912.14
2023-05-14T01:16:43.901Z,98916.51
2023-05-14T01:22:06.373Z,98914.61
2023-05-14T01:28:05.218Z,98913.98
2023-05-14T01:33:29.536Z,98908.65
2023-05-14T01:38:51.928Z,98907.27
2023-05-14T01:44:14.391Z,98908.36
2023-05-14T01:49:39.442Z,98904.29
2023-05-14T01:55:01.260Z,98903.89
2023-05-14T02:00:26.063Z,98902.52
2023-05-14T02:05:48.215Z,98895.88
2023-05-14T02:11:10.036Z,98887.20
2023-05-14T02:16:31.769Z,98887.00
2023-05-14T02:21:53.487Z,98890.30
2023-05-14T02:27:15.568Z,98890.67
2023-05-14T02:32:37.628Z,98890.56
2023-05-14T02:38:00.855Z,98884.00
2023-05-14T02:43:23.072Z,98886.79
2023-05-14T02:48:44.643Z,98878.89
2023-05-14T02:54:06.452Z,98872.89
2023-05-14T02:59:28.331Z,98870.20
2023-05-14T03:04:50.861Z,98871.02
2023-05-14T03:10:12.371Z,98863.95
2023-05-14T03:15:34.236Z,98861.72
2023-05-14T03:20:58.328Z,98860.98
2023-05-14T03:26:19.945Z,98856.80
2023-05-14T03:31:41.499Z,98851.93
2023-05-14T03:37:03.629Z,98856.46
2023-05-14T03:42:25.643Z,98854.40
2023-05-14T03:47:47.157Z,98848.36
2023-05-14T03:53:09.188Z,98845.96
2023-05-14T03:58:31.262Z,98844.49
2023-05-14T04:03:55.380Z,98838.19
2023-05-14T04:09:17.292Z,98837.17
2023-05-14T04:14:38.954Z,98842.86
2023-05-14T04:20:00.894Z,98850.85
2023-05-14T04:25:22.528Z,98845.19
2023-05-14T04:30:44.333Z,98841.01
2023-05-14T04:36:06.475Z,98842.48
2023-05-14T04:41:28.146Z,98835.59
2023-05-14T04:46:49.973Z,98838.27
2023-05-14T04:52:11.805Z,98838.50
2023-05-14T04:57:36.805Z,98838.41
2023-05-14T05:02:58.765Z,98831.30
2023-05-14T05:08:20.829Z,98827.66
2023-05-14T05:13:42.623Z,98820.83
2023-05-14T05:19:04.800Z,98823.04
2023-05-14T05:24:26.829Z,98816.86
2023-05-14T05:29:49.286Z,98817.59
2023-05-14T05:35:11.548Z,98816.60
2023-05-14T05:40:33.451Z,98815.83
2023-05-14T05:45:55.481Z,98812.61
2023-05-14T05:51:17.573Z,98805.08
2023-05-14T05:56:39.286Z,98808.66
2023-05-14T06:02:00.848Z,98810.50
2023-05-14T06:07:25.387Z,98825.61
2023-05-14T06:12:47.354Z,98817.74
2023-05-14T06:18:09.691Z,98811.41
2023-05-14T06:23:32.270Z,98807.00
2023-05-14T06:28:54.562Z,98802.11
2023-05-14T06:34:17.506Z,98801.81
2023-05-14T06:39:39.529Z,98795.46
2023-05-14T06:45:01.360Z,98798.95
2023-05-14T06:50:23.085Z,98796.02
2023-05-14T06:55:47.731Z,98803.45
2023-05-14T07:01:11.113Z,98803.11
2023-05-14T07:06:33.466Z,98796.03
2023-05-14T07:11:55.714Z,98794.64
2023-05-14T07:17:17.787Z,98793.41
2023-05-14T07:22:39.773Z,98795.98
2023-05-14T07:28:01.745Z,98799.23
2023-05-14T07:33:24.677Z,98795.96
2023-05-14T07:38:46.306Z,98797.02
2023-05-14T07:44:08.402Z,98803.02
2023-05-14T07:49:30.249Z,98808.23
2023-05-14T07:54:52.142Z,98809.84
2023-05-14T08:00:14.498Z,98797.02
2023-05-14T08:05:36.034Z,98788.05
2023-05-14T08:10:57.680Z,98781.50
2023-05-14T08:16:19.304Z,98775.55
2023-05-14T08:21:41.552Z,98761.11
2023-05-14T08:27:03.644Z,98755.39
2023-05-14T08:32:25.862Z,98744.04
2023-05-14T08:37:47.518Z,98736.05
2023-05-14T08:43:10.422Z,98734.41
2023-05-14T08:48:34.016Z,98732.03
2023-05-14T08:53:59.324Z,98731.00
2023-05-14T08:59:21.136Z,98722.86
2023-05-14T09:04:42.851Z,98716.11
2023-05-14T09:10:05.362Z,98714.13
2023-05-14T09:15:28.941Z,98707.55
2023-05-14T09:20:52.156Z,98706.55
2023-05-14T09:26:17.700Z,98708.95
2023-05-14T09:31:39.464Z,98711.17
2023-05-14T09:37:05.095Z,98705.14
2023-05-14T09:42:27.595Z,98706.38
2023-05-14T09:47:49.605Z,98706.80
2023-05-14T09:53:11.844Z,98700.25
2023-05-14T09:58:34.931Z,98692.48
2023-05-14T10:03:57.774Z,98688.28
2023-05-14T10:09:26.459Z,98683.89
2023-05-14T10:14:49.867Z,98671.05
2023-05-14T10:20:15.969Z,98658.55
2023-05-14T10:25:38.381Z,98650.43
2023-05-14T10:31:01.120Z,98638.88
2023-05-14T10:36:23.030Z,98634.95
2023-05-14T10:41:45.178Z,98627.41
2023-05-14T10:47:08.101Z,98619.86
2023-05-14T10:52:30.043Z,98617.45
2023-05-14T10:57:52.667Z,98613.85
2023-05-14T11:03:14.838Z,98614.21
2023-05-14T11:08:37.749Z,98613.92
2023-05-14T11:14:01.975Z,98611.29
2023-05-14T11:19:23.935Z,98607.81
2023-05-14T11:24:45.482Z,98597.83
2023-05-14T11:30:19.146Z,98592.17
2023-05-14T11:35:43.139Z,98596.77
2023-05-14T11:41:07.174Z,98588.59
2023-05-14T11:46:30.978Z,98583.22
2023-05-14T11:51:59.972Z,98582.52
2023-05-14T11:57:22.911Z,98575.23
2023-05-14T12:02:45.189Z,98566.31
2023-05-14T12:08:28.430Z,98556.92
2023-05-14T12:13:51.360Z,98553.65
2023-05-14T12:19:19.141Z,98546.55
2023-05-14T12:24:41.839Z,98542.38
2023-05-14T12:30:20.587Z,98534.48
2023-05-14T12:35:44.064Z,98525.00
2023-05-14T12:41:06.194Z,98516.93
2023-05-14T12:46:28.159Z,98516.65
2023-05-14T12:51:52.676Z,98509.56
2023-05-14T12:57:18.807Z,98502.45
2023-05-14T13:02:42.618Z,98494.42
2023-05-14T13:08:05.196Z,98489.38
2023-05-14T13:13:27.146Z,98485.46
2023-05-14T13:18:49.115Z,98480.74
2023-05-14T13:24:10.765Z,98480.84
2023-05-14T13:29:32.321Z,98479.22
2023-05-14T13:34:54.406Z,98472.27
2023-05-14T13:40:18.881Z,98460.90
2023-05-14T13:45:41.235Z,98452.59
2023-05-14T13:51:03.527Z,98440.20
2023-05-14T13:56:25.103Z,98437.53
2023-05-14T14:01:48.215Z,98418.22
2023-05-14T14:07:10.224Z,98406.59
2023-05-14T14:12:31.971Z,98411.48
2023-05-14T14:17:54.090Z,98404.08
2023-05-14T14:23:15.911Z,98392.20
2023-05-14T14:28:38.046Z,98380.61
2023-05-14T14:33:59.858Z,98376.45
2023-05-14T14:39:21.780Z,98368.79
2023-05-14T14:44:43.828Z,98368.10
2023-05-14T14:50:06.929Z,98359.21
2023-05-14T14:55:28.707Z,98347.89
2023-05-14T15:00:53.929Z,98338.09
2023-05-14T15:06:15.949Z,98321.02
2023-05-14T15:11:37.804Z,98314.05
2023-05-14T15:17:00.314Z,98306.56
2023-05-14T15:22:25.442Z,98309.50
2023-05-14T15:27:48.184Z,98309.90
2023-05-14T15:33:10.713Z,98306.13
2023-05-14T15:38:35.086Z,98304.36
2023-05-14T15:43:58.667Z,98297.06
2023-05-14T15:49:23.741Z,98294.42
2023-05-14T15:54:47.022Z,98288.98
2023-05-14T16:00:11.508Z,98287.89
2023-05-14T16:05:33.230Z,98276.23
2023-05-14T16:10:55.088Z,98260.36
2023-05-14T16:16:17.424Z,98256.45
2023-05-14T16:21:41.630Z,98258.73
2023-05-14T16:27:03.866Z,98254.30
2023-05-14T16:32:25.725Z,98250.85
2023-05-14T16:37:47.626Z,98252.08
2023-05-14T16:43:09.838Z,98251.70
2023-05-14T16:48:32.065Z,98244.90
2023-05-14T16:53:55.480Z,98245.91
2023-05-14T16:59:18.490Z,98239.20
2023-05-14T17:04:42.340Z,98238.11
2023-05-14T17:10:05.461Z,98237.19
2023-05-14T17:15:27.593Z,98228.16
2023-05-14T17:20:51.464Z,98223.30
2023-05-14T17:26:13.302Z,98216.83
2023-05-14T17:31:35.226Z,98214.19
2023-05-14T17:36:58.857Z,98208.08
2023-05-14T17:42:23.290Z,98210.51
2023-05-14T17:47:45.263Z,98204.75
2023-05-14T17:53:07.162Z,98206.61
2023-05-14T17:58:29.193Z,98210.87
2023-05-14T18:03:51.382Z,98218.63
2023-05-14T18:09:16.174Z,98226.19
2023-05-14T18:14:38.314Z,98244.20
2023-05-14T18:20:00.301Z,98273.83
2023-05-14T18:25:25.174Z,98290.12
2023-05-14T18:30:47.657Z,98297.25
2023-05-14T18:36:09.139Z,98300.14
2023-05-14T18:41:36.789Z,98295.23
2023-05-14T18:46:59.742Z,98299.04
2023-05-14T18:52:26.812Z,98288.05
2023-05-14T18:57:52.006Z,98282.52
2023-05-14T19:03:14.736Z,98277.29
2023-05-14T19:08:36.472Z,98277.14
2023-05-14T19:13:58.218Z,98284.55
2023-05-14T19:19:21.768Z,98284.90
2023-05-14T19:24:46.296Z,98284.70
2023-05-14T19:30:09.003Z,98286.06
2023-05-14T19:35:31.332Z,98286.78
2023-05-14T19:40:56.999Z,98285.10
2023-05-14T19:46:22.119Z,98282.62
2023-05-14T19:51:44.241Z,98289.81
2023-05-14T19:57:06.891Z,98294.48
2023-05-14T20:02:29.543Z,98304.66
2023-05-14T20:07:51.528Z,98313.17
2023-05-14T20:13:13.264Z,98304.27
2023-05-14T20:18:35.320Z,98294.67
2023-05-14T20:23:58.533Z,98280.73
2023-05-14T20:29:20.558Z,98270.54
2023-05-14T20:34:42.486Z,98254.52
2023-05-14T20:40:06.233Z,98235.30
2023-05-14T20:45:32.193Z,98215.99
2023-05-14T20:50:54.388Z,98200.63
2023-05-14T20:56:16.019Z,98187.95
2023-05-14T21:01:37.837Z,98167.66
2023-05-14T21:07:00.640Z,98138.73
2023-05-14T21:12:22.630Z,98116.88
2023-05-14T21:17:44.798Z,98098.14
2023-05-14T21:23:07.128Z,98087.58
2023-05-14T21:28:32.213Z,98087.77
2023-05-14T21:33:55.141Z,98084.52
2023-05-14T21:39:17.544Z,98077.30
2023-05-14T21:44:41.616Z,98070.60
2023-05-14T21:50:05.098Z,98064.23
2023-05-14T21:55:28.058Z,98055.79
2023-05-14T22:00:52.693Z,98042.70
2023-05-14T22:06:17.558Z,98029.43
2023-05-14T22:11:39.375Z,98026.02
2023-05-14T22:17:01.317Z,98025.52
2023-05-14T22:22:25.013Z,98015.24
2023-05-14T22:27:46.790Z,97998.89
2023-05-14T22:33:09.503Z,97992.02
2023-05-14T22:38:31.190Z,97980.66
2023-05-14T22:43:53.272Z,97973.75
2023-05-14T22:49:14.999Z,97984.92
2023-05-14T22:54:36.982Z,97990.60
2023-05-14T22:59:58.750Z,97976.77
2023-05-14T23:05:23.346Z,97949.71
2023-05-14T23:10:45.373Z,97923.55
2023-05-14T23:16:07.453Z,97926.95
2023-05-14T23:21:29.083Z,97916.93
2023-05-14T23:26:50.767Z,97899.55
2023-05-14T23:32:13.082Z,97899.08
2023-05-14T23:37:36.974Z,97897.63
2023-05-14T23:43:00.425Z,97895.41
2023-05-14T23:48:22.145Z,97895.95
2023-05-14T23:53:44.166Z,97883.92
2023-05-14T23:59:06.106Z,97872.02
